sensor_id;sensor_type;location;lat;lon;timestamp;P1;durP1;ratioP1;P2;durP2;ratioP2
68653;SDS011;55636;51.108;13.622;2023-06-22T00:00:37;9.38;;;8.48;;
68653;SDS011;55636;51.108;13.622;2023-06-22T00:01:41;9.45;;;8.55;;
68653;SDS011;55636;51.108;13.622;2023-06-22T00:02:43;8.93;;;8.10;;
68653;SDS011;55636;51.108;13.622;2023-06-22T00:03:46;10.07;;;8.65;;
68653;SDS011;55636;51.108;13.622;2023-06-22T00:04:49;10.00;;;9.00;;
68653;SDS011;55636;51.108;13.622;2023-06-22T00:05:52;9.43;;;8.52;;
68653;SDS011;55636;51.108;13.622;2023-06-22T00:06:54;10.75;;;9.15;;
68653;SDS011;55636;51.108;13.622;2023-06-22T00:07:57;9.80;;;8.60;;
68653;SDS011;55636;51.108;13.622;2023-06-22T00:08:59;9.48;;;8.45;;
68653;SDS011;55636;51.108;13.622;2023-06-22T00:10:01;10.00;;;9.00;;
68653;SDS011;55636;51.108;13.622;2023-06-22T00:11:04;10.38;;;8.50;;
68653;SDS011;55636;51.108;13.622;2023-06-22T00:12:06;9.15;;;8.25;;
68653;SDS011;55636;51.108;13.622;2023-06-22T00:13:11;10.35;;;8.82;;
68653;SDS011;55636;51.108;13.622;2023-06-22T00:14:14;9.80;;;8.80;;
68653;SDS011;55636;51.108;13.622;2023-06-22T00:15:17;9.55;;;8.65;;
68653;SDS011;55636;51.108;13.622;2023-06-22T00:16:20;9.23;;;8.32;;
68653;SDS011;55636;51.108;13.622;2023-06-22T00:17:22;10.38;;;8.98;;
68653;SDS011;55636;51.108;13.622;2023-06-22T00:18:24;9.57;;;8.63;;
68653;SDS011;55636;51.108;13.622;2023-06-22T00:19:30;9.82;;;8.82;;
68653;SDS011;55636;51.108;13.622;2023-06-22T00:20:32;9.65;;;8.65;;
68653;SDS011;55636;51.108;13.622;2023-06-22T00:21:35;10.50;;;9.35;;
68653;SDS011;55636;51.108;13.622;2023-06-22T00:22:37;9.63;;;8.57;;
68653;SDS011;55636;51.108;13.622;2023-06-22T00:23:41;10.68;;;9.07;;
68653;SDS011;55636;51.108;13.622;2023-06-22T00:24:45;9.65;;;8.75;;
68653;SDS011;55636;51.108;13.622;2023-06-22T00:25:47;9.48;;;8.55;;
68653;SDS011;55636;51.108;13.622;2023-06-22T00:26:50;9.48;;;8.48;;
68653;SDS011;55636;51.108;13.622;2023-06-22T00:27:52;10.07;;;8.98;;
68653;SDS011;55636;51.108;13.622;2023-06-22T00:28:55;9.40;;;8.50;;
68653;SDS011;55636;51.108;13.622;2023-06-22T00:29:57;9.20;;;8.30;;
68653;SDS011;55636;51.108;13.622;2023-06-22T00:30:59;9.52;;;8.40;;
68653;SDS011;55636;51.108;13.622;2023-06-22T00:32:02;10.25;;;8.80;;
68653;SDS011;55636;51.108;13.622;2023-06-22T00:33:05;9.45;;;8.55;;
68653;SDS011;55636;51.108;13.622;2023-06-22T00:34:09;9.60;;;8.65;;
68653;SDS011;55636;51.108;13.622;2023-06-22T00:35:12;10.60;;;8.88;;
68653;SDS011;55636;51.108;13.622;2023-06-22T00:36:14;9.35;;;8.45;;
68653;SDS011;55636;51.108;13.622;2023-06-22T00:37:18;9.40;;;8.52;;
68653;SDS011;55636;51.108;13.622;2023-06-22T00:38:20;9.70;;;8.70;;
68653;SDS011;55636;51.108;13.622;2023-06-22T00:39:24;10.05;;;8.85;;
68653;SDS011;55636;51.108;13.622;2023-06-22T00:40:29;10.88;;;9.40;;
68653;SDS011;55636;51.108;13.622;2023-06-22T00:41:33;12.70;;;9.77;;
68653;SDS011;55636;51.108;13.622;2023-06-22T00:42:39;11.23;;;8.98;;
68653;SDS011;55636;51.108;13.622;2023-06-22T00:43:44;10.95;;;9.30;;
68653;SDS011;55636;51.108;13.622;2023-06-22T00:44:47;9.73;;;8.73;;
68653;SDS011;55636;51.108;13.622;2023-06-22T00:45:50;11.65;;;9.48;;
68653;SDS011;55636;51.108;13.622;2023-06-22T00:46:52;11.77;;;9.70;;
68653;SDS011;55636;51.108;13.622;2023-06-22T00:47:56;12.50;;;9.63;;
68653;SDS011;55636;51.108;13.622;2023-06-22T00:49:00;10.48;;;9.38;;
68653;SDS011;55636;51.108;13.622;2023-06-22T00:50:06;11.45;;;9.88;;
68653;SDS011;55636;51.108;13.622;2023-06-22T00:51:12;11.73;;;10.15;;
68653;SDS011;55636;51.108;13.622;2023-06-22T00:52:15;11.60;;;9.60;;
68653;SDS011;55636;51.108;13.622;2023-06-22T00:53:23;11.48;;;10.23;;
68653;SDS011;55636;51.108;13.622;2023-06-22T00:54:26;11.88;;;9.60;;
68653;SDS011;55636;51.108;13.622;2023-06-22T00:55:31;10.38;;;9.25;;
68653;SDS011;55636;51.108;13.622;2023-06-22T00:56:33;11.30;;;9.98;;
68653;SDS011;55636;51.108;13.622;2023-06-22T00:57:39;13.27;;;9.90;;
68653;SDS011;55636;51.108;13.622;2023-06-22T00:58:42;10.63;;;9.52;;
68653;SDS011;55636;51.108;13.622;2023-06-22T00:59:47;10.27;;;9.25;;
68653;SDS011;55636;51.108;13.622;2023-06-22T01:00:51;11.25;;;9.65;;
68653;SDS011;55636;51.108;13.622;2023-06-22T01:01:53;10.88;;;9.77;;
68653;SDS011;55636;51.108;13.622;2023-06-22T01:02:57;10.80;;;9.70;;
68653;SDS011;55636;51.108;13.622;2023-06-22T01:03:59;10.63;;;9.63;;
68653;SDS011;55636;51.108;13.622;2023-06-22T01:05:02;11.15;;;9.50;;
68653;SDS011;55636;51.108;13.622;2023-06-22T01:06:15;10.40;;;9.35;;
68653;SDS011;55636;51.108;13.622;2023-06-22T01:07:34;10.85;;;9.35;;
68653;SDS011;55636;51.108;13.622;2023-06-22T01:10:30;12.50;;;9.43;;
68653;SDS011;55636;51.108;13.622;2023-06-22T01:11:44;10.05;;;9.05;;
68653;SDS011;55636;51.108;13.622;2023-06-22T01:12:53;10.40;;;9.13;;
68653;SDS011;55636;51.108;13.622;2023-06-22T01:14:12;10.35;;;9.25;;
68653;SDS011;55636;51.108;13.622;2023-06-22T01:15:21;11.30;;;10.10;;
68653;SDS011;55636;51.108;13.622;2023-06-22T01:16:31;11.25;;;10.05;;
68653;SDS011;55636;51.108;13.622;2023-06-22T01:17:36;10.65;;;9.52;;
68653;SDS011;55636;51.108;13.622;2023-06-22T01:18:45;10.30;;;9.20;;
68653;SDS011;55636;51.108;13.622;2023-06-22T01:19:50;10.73;;;9.43;;
68653;SDS011;55636;51.108;13.622;2023-06-22T01:20:58;10.00;;;9.00;;
68653;SDS011;55636;51.108;13.622;2023-06-22T01:22:03;10.60;;;9.57;;
68653;SDS011;55636;51.108;13.622;2023-06-22T01:23:20;10.75;;;9.63;;
68653;SDS011;55636;51.108;13.622;2023-06-22T01:28:36;10.55;;;9.45;;
68653;SDS011;55636;51.108;13.622;2023-06-22T01:29:53;10.60;;;9.60;;
68653;SDS011;55636;51.108;13.622;2023-06-22T01:31:14;11.80;;;9.82;;
68653;SDS011;55636;51.108;13.622;2023-06-22T01:32:19;11.25;;;9.30;;
68653;SDS011;55636;51.108;13.622;2023-06-22T01:33:23;10.82;;;9.73;;
68653;SDS011;55636;51.108;13.622;2023-06-22T01:34:28;10.75;;;9.65;;
68653;SDS011;55636;51.108;13.622;2023-06-22T01:35:33;10.63;;;9.60;;
68653;SDS011;55636;51.108;13.622;2023-06-22T01:36:38;10.77;;;9.68;;
68653;SDS011;55636;51.108;13.622;2023-06-22T01:37:41;10.35;;;9.35;;
68653;SDS011;55636;51.108;13.622;2023-06-22T01:38:46;10.85;;;9.73;;
68653;SDS011;55636;51.108;13.622;2023-06-22T01:39:50;10.82;;;9.73;;
68653;SDS011;55636;51.108;13.622;2023-06-22T01:40:53;9.48;;;8.57;;
68653;SDS011;55636;51.108;13.622;2023-06-22T01:41:57;11.60;;;9.52;;
68653;SDS011;55636;51.108;13.622;2023-06-22T01:43:01;10.50;;;9.40;;
68653;SDS011;55636;51.108;13.622;2023-06-22T01:44:05;10.05;;;9.05;;
68653;SDS011;55636;51.108;13.622;2023-06-22T01:45:10;10.60;;;9.50;;
68653;SDS011;55636;51.108;13.622;2023-06-22T01:46:14;10.52;;;9.30;;
68653;SDS011;55636;51.108;13.622;2023-06-22T01:47:17;10.88;;;9.77;;
68653;SDS011;55636;51.108;13.622;2023-06-22T01:48:19;10.82;;;9.73;;
68653;SDS011;55636;51.108;13.622;2023-06-22T01:49:23;10.73;;;9.63;;
68653;SDS011;55636;51.108;13.622;2023-06-22T01:50:26;10.50;;;9.40;;
68653;SDS011;55636;51.108;13.622;2023-06-22T01:51:30;10.57;;;9.48;;
68653;SDS011;55636;51.108;13.622;2023-06-22T01:52:34;10.82;;;9.73;;
68653;SDS011;55636;51.108;13.622;2023-06-22T01:53:37;11.00;;;10.00;;
68653;SDS011;55636;51.108;13.622;2023-06-22T01:54:39;10.80;;;9.80;;
68653;SDS011;55636;51.108;13.622;2023-06-22T01:55:42;10.95;;;9.88;;
68653;SDS011;55636;51.108;13.622;2023-06-22T01:56:44;11.20;;;10.10;;
68653;SDS011;55636;51.108;13.622;2023-06-22T01:57:47;11.82;;;10.63;;
68653;SDS011;55636;51.108;13.622;2023-06-22T01:58:54;12.32;;;10.45;;
68653;SDS011;55636;51.108;13.622;2023-06-22T02:00:20;11.25;;;10.15;;
68653;SDS011;55636;51.108;13.622;2023-06-22T02:01:28;10.60;;;9.55;;
68653;SDS011;55636;51.108;13.622;2023-06-22T02:02:40;11.07;;;9.98;;
68653;SDS011;55636;51.108;13.622;2023-06-22T02:03:49;10.68;;;9.70;;
68653;SDS011;55636;51.108;13.622;2023-06-22T02:05:07;10.35;;;9.30;;
68653;SDS011;55636;51.108;13.622;2023-06-22T02:06:23;11.57;;;10.23;;
68653;SDS011;55636;51.108;13.622;2023-06-22T02:07:30;10.40;;;9.38;;
68653;SDS011;55636;51.108;13.622;2023-06-22T02:08:59;10.75;;;9.68;;
68653;SDS011;55636;51.108;13.622;2023-06-22T02:10:03;10.10;;;9.20;;
68653;SDS011;55636;51.108;13.622;2023-06-22T02:11:09;10.98;;;9.88;;
68653;SDS011;55636;51.108;13.622;2023-06-22T02:12:13;10.90;;;9.80;;
68653;SDS011;55636;51.108;13.622;2023-06-22T02:13:24;11.90;;;9.88;;
68653;SDS011;55636;51.108;13.622;2023-06-22T02:14:28;11.52;;;10.27;;
68653;SDS011;55636;51.108;13.622;2023-06-22T02:15:31;10.50;;;9.38;;
68653;SDS011;55636;51.108;13.622;2023-06-22T02:16:35;14.18;;;10.70;;
68653;SDS011;55636;51.108;13.622;2023-06-22T02:17:39;11.95;;;10.63;;
68653;SDS011;55636;51.108;13.622;2023-06-22T02:18:50;10.60;;;9.50;;
68653;SDS011;55636;51.108;13.622;2023-06-22T02:19:55;14.25;;;10.95;;
68653;SDS011;55636;51.108;13.622;2023-06-22T02:20:57;11.65;;;10.45;;
68653;SDS011;55636;51.108;13.622;2023-06-22T02:22:01;12.63;;;10.60;;
68653;SDS011;55636;51.108;13.622;2023-06-22T02:23:04;12.82;;;10.52;;
68653;SDS011;55636;51.108;13.622;2023-06-22T02:24:09;11.63;;;10.20;;
68653;SDS011;55636;51.108;13.622;2023-06-22T02:25:12;12.40;;;10.27;;
68653;SDS011;55636;51.108;13.622;2023-06-22T02:26:16;12.10;;;9.93;;
68653;SDS011;55636;51.108;13.622;2023-06-22T02:27:21;11.23;;;10.07;;
68653;SDS011;55636;51.108;13.622;2023-06-22T02:28:23;10.70;;;9.55;;
68653;SDS011;55636;51.108;13.622;2023-06-22T02:29:25;13.13;;;10.40;;
68653;SDS011;55636;51.108;13.622;2023-06-22T02:30:29;11.57;;;10.10;;
68653;SDS011;55636;51.108;13.622;2023-06-22T02:31:32;10.85;;;9.40;;
68653;SDS011;55636;51.108;13.622;2023-06-22T02:32:35;11.18;;;10.07;;
68653;SDS011;55636;51.108;13.622;2023-06-22T02:33:38;11.40;;;10.20;;
68653;SDS011;55636;51.108;13.622;2023-06-22T02:34:41;14.93;;;10.93;;
68653;SDS011;55636;51.108;13.622;2023-06-22T02:35:44;13.52;;;11.38;;
68653;SDS011;55636;51.108;13.622;2023-06-22T02:36:51;12.65;;;11.32;;
68653;SDS011;55636;51.108;13.622;2023-06-22T02:37:53;12.75;;;11.43;;
68653;SDS011;55636;51.108;13.622;2023-06-22T02:38:56;16.35;;;11.60;;
68653;SDS011;55636;51.108;13.622;2023-06-22T02:40:05;14.88;;;11.07;;
68653;SDS011;55636;51.108;13.622;2023-06-22T02:41:16;12.65;;;10.73;;
68653;SDS011;55636;51.108;13.622;2023-06-22T02:42:23;13.70;;;11.30;;
68653;SDS011;55636;51.108;13.622;2023-06-22T02:43:25;11.88;;;10.02;;
68653;SDS011;55636;51.108;13.622;2023-06-22T02:44:27;12.43;;;10.98;;
68653;SDS011;55636;51.108;13.622;2023-06-22T02:45:30;12.30;;;11.00;;
68653;SDS011;55636;51.108;13.622;2023-06-22T02:46:33;12.73;;;10.73;;
68653;SDS011;55636;51.108;13.622;2023-06-22T02:47:35;12.05;;;10.80;;
68653;SDS011;55636;51.108;13.622;2023-06-22T02:48:38;13.57;;;10.32;;
68653;SDS011;55636;51.108;13.622;2023-06-22T02:49:43;12.50;;;10.80;;
68653;SDS011;55636;51.108;13.622;2023-06-22T02:50:48;14.30;;;10.88;;
68653;SDS011;55636;51.108;13.622;2023-06-22T02:51:50;12.55;;;11.02;;
68653;SDS011;55636;51.108;13.622;2023-06-22T02:52:55;12.60;;;11.23;;
68653;SDS011;55636;51.108;13.622;2023-06-22T02:53:58;13.55;;;12.15;;
68653;SDS011;55636;51.108;13.622;2023-06-22T02:55:02;13.10;;;11.73;;
68653;SDS011;55636;51.108;13.622;2023-06-22T02:56:05;13.80;;;12.23;;
68653;SDS011;55636;51.108;13.622;2023-06-22T02:57:11;13.57;;;12.10;;
68653;SDS011;55636;51.108;13.622;2023-06-22T02:58:17;13.18;;;11.88;;
68653;SDS011;55636;51.108;13.622;2023-06-22T02:59:20;12.80;;;11.45;;
68653;SDS011;55636;51.108;13.622;2023-06-22T03:00:30;13.70;;;12.30;;
68653;SDS011;55636;51.108;13.622;2023-06-22T03:01:34;12.77;;;11.48;;
68653;SDS011;55636;51.108;13.622;2023-06-22T03:02:51;12.95;;;11.20;;
68653;SDS011;55636;51.108;13.622;2023-06-22T03:03:54;13.00;;;11.55;;
68653;SDS011;55636;51.108;13.622;2023-06-22T03:04:56;11.82;;;10.65;;
68653;SDS011;55636;51.108;13.622;2023-06-22T03:05:59;11.63;;;10.43;;
68653;SDS011;55636;51.108;13.622;2023-06-22T03:07:03;11.75;;;10.63;;
68653;SDS011;55636;51.108;13.622;2023-06-22T03:08:08;11.52;;;10.40;;
68653;SDS011;55636;51.108;13.622;2023-06-22T03:09:10;11.10;;;9.82;;
68653;SDS011;55636;51.108;13.622;2023-06-22T03:10:14;11.32;;;10.23;;
68653;SDS011;55636;51.108;13.622;2023-06-22T03:11:19;10.90;;;9.82;;
68653;SDS011;55636;51.108;13.622;2023-06-22T03:12:21;11.88;;;10.52;;
68653;SDS011;55636;51.108;13.622;2023-06-22T03:13:27;12.05;;;10.75;;
68653;SDS011;55636;51.108;13.622;2023-06-22T03:14:29;12.10;;;10.90;;
68653;SDS011;55636;51.108;13.622;2023-06-22T03:15:31;11.30;;;10.30;;
68653;SDS011;55636;51.108;13.622;2023-06-22T03:16:35;12.38;;;11.07;;
68653;SDS011;55636;51.108;13.622;2023-06-22T03:17:38;12.57;;;11.15;;
68653;SDS011;55636;51.108;13.622;2023-06-22T03:18:42;13.88;;;11.70;;
68653;SDS011;55636;51.108;13.622;2023-06-22T03:19:47;11.85;;;10.70;;
68653;SDS011;55636;51.108;13.622;2023-06-22T03:20:49;12.40;;;11.10;;
68653;SDS011;55636;51.108;13.622;2023-06-22T03:21:53;11.63;;;10.45;;
68653;SDS011;55636;51.108;13.622;2023-06-22T03:22:56;12.00;;;10.48;;
68653;SDS011;55636;51.108;13.622;2023-06-22T03:23:59;11.52;;;10.13;;
68653;SDS011;55636;51.108;13.622;2023-06-22T03:25:01;13.90;;;11.32;;
68653;SDS011;55636;51.108;13.622;2023-06-22T03:26:04;11.50;;;10.40;;
68653;SDS011;55636;51.108;13.622;2023-06-22T03:27:07;12.13;;;10.93;;
68653;SDS011;55636;51.108;13.622;2023-06-22T03:28:10;11.77;;;10.13;;
68653;SDS011;55636;51.108;13.622;2023-06-22T03:29:14;11.73;;;10.52;;
68653;SDS011;55636;51.108;13.622;2023-06-22T03:30:18;11.38;;;10.05;;
68653;SDS011;55636;51.108;13.622;2023-06-22T03:31:21;13.52;;;10.85;;
68653;SDS011;55636;51.108;13.622;2023-06-22T03:32:24;12.48;;;11.18;;
68653;SDS011;55636;51.108;13.622;2023-06-22T03:33:27;11.93;;;10.60;;
68653;SDS011;55636;51.108;13.622;2023-06-22T03:34:33;11.75;;;10.55;;
68653;SDS011;55636;51.108;13.622;2023-06-22T03:35:38;12.07;;;10.82;;
68653;SDS011;55636;51.108;13.622;2023-06-22T03:36:40;12.02;;;10.68;;
68653;SDS011;55636;51.108;13.622;2023-06-22T03:37:43;11.40;;;9.95;;
68653;SDS011;55636;51.108;13.622;2023-06-22T03:38:46;11.52;;;10.43;;
68653;SDS011;55636;51.108;13.622;2023-06-22T03:39:50;12.07;;;10.63;;
68653;SDS011;55636;51.108;13.622;2023-06-22T03:40:52;12.52;;;11.13;;
68653;SDS011;55636;51.108;13.622;2023-06-22T03:41:55;11.82;;;10.63;;
68653;SDS011;55636;51.108;13.622;2023-06-22T03:42:58;11.85;;;10.63;;
68653;SDS011;55636;51.108;13.622;2023-06-22T03:44:01;12.57;;;11.23;;
68653;SDS011;55636;51.108;13.622;2023-06-22T03:45:03;11.77;;;10.57;;
68653;SDS011;55636;51.108;13.622;2023-06-22T03:46:06;11.73;;;10.60;;
68653;SDS011;55636;51.108;13.622;2023-06-22T03:47:08;12.13;;;10.88;;
68653;SDS011;55636;51.108;13.622;2023-06-22T03:48:12;12.23;;;10.95;;
68653;SDS011;55636;51.108;13.622;2023-06-22T03:49:16;12.60;;;11.30;;
68653;SDS011;55636;51.108;13.622;2023-06-22T03:50:18;12.55;;;11.27;;
68653;SDS011;55636;51.108;13.622;2023-06-22T03:51:22;13.05;;;11.70;;
68653;SDS011;55636;51.108;13.622;2023-06-22T03:52:24;14.35;;;11.80;;
68653;SDS011;55636;51.108;13.622;2023-06-22T03:53:27;12.82;;;10.68;;
68653;SDS011;55636;51.108;13.622;2023-06-22T03:54:29;12.05;;;10.75;;
68653;SDS011;55636;51.108;13.622;2023-06-22T03:55:33;11.70;;;10.35;;
68653;SDS011;55636;51.108;13.622;2023-06-22T03:56:36;11.23;;;10.15;;
68653;SDS011;55636;51.108;13.622;2023-06-22T03:57:40;11.35;;;10.25;;
68653;SDS011;55636;51.108;13.622;2023-06-22T03:58:42;11.18;;;10.13;;
68653;SDS011;55636;51.108;13.622;2023-06-22T03:59:47;11.02;;;9.80;;
68653;SDS011;55636;51.108;13.622;2023-06-22T04:00:50;11.45;;;10.00;;
68653;SDS011;55636;51.108;13.622;2023-06-22T04:01:54;11.35;;;10.23;;
68653;SDS011;55636;51.108;13.622;2023-06-22T04:02:56;11.98;;;10.70;;
68653;SDS011;55636;51.108;13.622;2023-06-22T04:03:59;13.75;;;10.88;;
68653;SDS011;55636;51.108;13.622;2023-06-22T04:05:03;11.85;;;10.32;;
68653;SDS011;55636;51.108;13.622;2023-06-22T04:06:06;11.32;;;10.23;;
68653;SDS011;55636;51.108;13.622;2023-06-22T04:07:08;11.45;;;10.32;;
68653;SDS011;55636;51.108;13.622;2023-06-22T04:08:11;13.82;;;10.43;;
68653;SDS011;55636;51.108;13.622;2023-06-22T04:09:15;11.93;;;10.68;;
68653;SDS011;55636;51.108;13.622;2023-06-22T04:10:18;12.57;;;11.00;;
68653;SDS011;55636;51.108;13.622;2023-06-22T04:11:21;11.48;;;10.27;;
68653;SDS011;55636;51.108;13.622;2023-06-22T04:12:23;12.02;;;10.75;;
68653;SDS011;55636;51.108;13.622;2023-06-22T04:13:25;12.57;;;11.00;;
68653;SDS011;55636;51.108;13.622;2023-06-22T04:14:28;12.20;;;11.00;;
68653;SDS011;55636;51.108;13.622;2023-06-22T04:15:30;12.68;;;11.38;;
68653;SDS011;55636;51.108;13.622;2023-06-22T04:16:33;14.02;;;11.52;;
68653;SDS011;55636;51.108;13.622;2023-06-22T04:17:36;13.82;;;12.05;;
68653;SDS011;55636;51.108;13.622;2023-06-22T04:18:41;13.45;;;12.05;;
68653;SDS011;55636;51.108;13.622;2023-06-22T04:19:44;13.57;;;11.50;;
68653;SDS011;55636;51.108;13.622;2023-06-22T04:20:46;13.43;;;12.00;;
68653;SDS011;55636;51.108;13.622;2023-06-22T04:21:49;13.48;;;12.07;;
68653;SDS011;55636;51.108;13.622;2023-06-22T04:22:52;15.90;;;12.25;;
68653;SDS011;55636;51.108;13.622;2023-06-22T04:23:55;13.50;;;11.55;;
68653;SDS011;55636;51.108;13.622;2023-06-22T04:24:59;13.75;;;11.38;;
68653;SDS011;55636;51.108;13.622;2023-06-22T04:26:02;12.10;;;10.68;;
68653;SDS011;55636;51.108;13.622;2023-06-22T04:27:04;13.45;;;10.65;;
68653;SDS011;55636;51.108;13.622;2023-06-22T04:28:07;12.48;;;11.10;;
68653;SDS011;55636;51.108;13.622;2023-06-22T04:29:14;11.57;;;9.88;;
68653;SDS011;55636;51.108;13.622;2023-06-22T04:30:17;11.40;;;10.25;;
68653;SDS011;55636;51.108;13.622;2023-06-22T04:31:20;11.65;;;10.45;;
68653;SDS011;55636;51.108;13.622;2023-06-22T04:32:22;11.23;;;10.13;;
68653;SDS011;55636;51.108;13.622;2023-06-22T04:33:25;11.15;;;10.05;;
68653;SDS011;55636;51.108;13.622;2023-06-22T04:34:27;13.63;;;10.40;;
68653;SDS011;55636;51.108;13.622;2023-06-22T04:35:30;11.10;;;10.00;;
68653;SDS011;55636;51.108;13.622;2023-06-22T04:36:36;11.88;;;10.68;;
68653;SDS011;55636;51.108;13.622;2023-06-22T04:37:40;12.30;;;10.27;;
68653;SDS011;55636;51.108;13.622;2023-06-22T04:38:42;12.68;;;10.80;;
68653;SDS011;55636;51.108;13.622;2023-06-22T04:39:46;12.25;;;11.07;;
68653;SDS011;55636;51.108;13.622;2023-06-22T04:40:49;12.93;;;11.65;;
68653;SDS011;55636;51.108;13.622;2023-06-22T04:41:52;13.88;;;11.75;;
68653;SDS011;55636;51.108;13.622;2023-06-22T04:42:54;13.27;;;11.98;;
68653;SDS011;55636;51.108;13.622;2023-06-22T04:43:57;13.18;;;11.77;;
68653;SDS011;55636;51.108;13.622;2023-06-22T04:45:02;13.25;;;11.88;;
68653;SDS011;55636;51.108;13.622;2023-06-22T04:46:05;13.40;;;12.00;;
68653;SDS011;55636;51.108;13.622;2023-06-22T04:47:07;13.52;;;11.93;;
68653;SDS011;55636;51.108;13.622;2023-06-22T04:48:13;14.07;;;12.07;;
68653;SDS011;55636;51.108;13.622;2023-06-22T04:49:18;13.25;;;11.95;;
68653;SDS011;55636;51.108;13.622;2023-06-22T04:50:24;14.48;;;12.20;;
68653;SDS011;55636;51.108;13.622;2023-06-22T04:51:26;13.88;;;12.32;;
68653;SDS011;55636;51.108;13.622;2023-06-22T04:52:34;13.25;;;12.00;;
68653;SDS011;55636;51.108;13.622;2023-06-22T04:53:36;12.45;;;11.25;;
68653;SDS011;55636;51.108;13.622;2023-06-22T04:54:39;13.68;;;12.27;;
68653;SDS011;55636;51.108;13.622;2023-06-22T04:55:50;12.82;;;11.07;;
68653;SDS011;55636;51.108;13.622;2023-06-22T04:56:55;13.23;;;12.00;;
68653;SDS011;55636;51.108;13.622;2023-06-22T04:58:00;12.35;;;11.15;;
68653;SDS011;55636;51.108;13.622;2023-06-22T04:59:07;12.90;;;11.60;;
68653;SDS011;55636;51.108;13.622;2023-06-22T05:00:10;13.27;;;11.25;;
68653;SDS011;55636;51.108;13.622;2023-06-22T05:01:15;12.88;;;11.57;;
68653;SDS011;55636;51.108;13.622;2023-06-22T05:02:17;12.65;;;11.35;;
68653;SDS011;55636;51.108;13.622;2023-06-22T05:03:20;12.15;;;10.98;;
68653;SDS011;55636;51.108;13.622;2023-06-22T05:04:22;12.82;;;11.60;;
68653;SDS011;55636;51.108;13.622;2023-06-22T05:05:26;12.32;;;11.13;;
68653;SDS011;55636;51.108;13.622;2023-06-22T05:06:28;13.93;;;11.60;;
68653;SDS011;55636;51.108;13.622;2023-06-22T05:07:31;13.02;;;11.65;;
68653;SDS011;55636;51.108;13.622;2023-06-22T05:08:34;12.80;;;11.48;;
68653;SDS011;55636;51.108;13.622;2023-06-22T05:09:36;12.82;;;11.63;;
68653;SDS011;55636;51.108;13.622;2023-06-22T05:10:39;12.88;;;11.55;;
68653;SDS011;55636;51.108;13.622;2023-06-22T05:12:00;12.65;;;11.35;;
68653;SDS011;55636;51.108;13.622;2023-06-22T05:13:04;12.98;;;11.68;;
68653;SDS011;55636;51.108;13.622;2023-06-22T05:14:07;13.50;;;12.10;;
68653;SDS011;55636;51.108;13.622;2023-06-22T05:15:09;14.00;;;11.60;;
68653;SDS011;55636;51.108;13.622;2023-06-22T05:16:12;13.27;;;11.85;;
68653;SDS011;55636;51.108;13.622;2023-06-22T05:17:15;14.65;;;11.40;;
68653;SDS011;55636;51.108;13.622;2023-06-22T05:18:21;12.57;;;11.30;;
68653;SDS011;55636;51.108;13.622;2023-06-22T05:19:26;13.77;;;11.57;;
68653;SDS011;55636;51.108;13.622;2023-06-22T05:20:36;13.52;;;11.65;;
68653;SDS011;55636;51.108;13.622;2023-06-22T05:21:38;12.35;;;11.13;;
68653;SDS011;55636;51.108;13.622;2023-06-22T05:22:41;11.50;;;10.30;;
68653;SDS011;55636;51.108;13.622;2023-06-22T05:23:45;11.50;;;10.27;;
68653;SDS011;55636;51.108;13.622;2023-06-22T05:24:47;14.50;;;11.18;;
68653;SDS011;55636;51.108;13.622;2023-06-22T05:25:50;12.10;;;10.90;;
68653;SDS011;55636;51.108;13.622;2023-06-22T05:26:53;12.82;;;11.20;;
68653;SDS011;55636;51.108;13.622;2023-06-22T05:27:55;12.48;;;11.18;;
68653;SDS011;55636;51.108;13.622;2023-06-22T05:28:58;12.32;;;11.07;;
68653;SDS011;55636;51.108;13.622;2023-06-22T05:30:03;12.02;;;10.93;;
68653;SDS011;55636;51.108;13.622;2023-06-22T05:31:06;11.60;;;10.50;;
68653;SDS011;55636;51.108;13.622;2023-06-22T05:32:09;12.18;;;10.88;;
68653;SDS011;55636;51.108;13.622;2023-06-22T05:33:11;12.18;;;11.07;;
68653;SDS011;55636;51.108;13.622;2023-06-22T05:34:14;12.02;;;10.80;;
68653;SDS011;55636;51.108;13.622;2023-06-22T05:35:16;11.60;;;10.50;;
68653;SDS011;55636;51.108;13.622;2023-06-22T05:36:19;12.90;;;11.57;;
68653;SDS011;55636;51.108;13.622;2023-06-22T05:37:22;12.20;;;11.10;;
68653;SDS011;55636;51.108;13.622;2023-06-22T05:38:24;12.48;;;11.35;;
68653;SDS011;55636;51.108;13.622;2023-06-22T05:39:27;12.70;;;11.43;;
68653;SDS011;55636;51.108;13.622;2023-06-22T05:40:30;13.95;;;11.18;;
68653;SDS011;55636;51.108;13.622;2023-06-22T05:41:32;12.50;;;11.30;;
68653;SDS011;55636;51.108;13.622;2023-06-22T05:42:35;12.05;;;10.88;;
68653;SDS011;55636;51.108;13.622;2023-06-22T05:43:37;12.48;;;11.25;;
68653;SDS011;55636;51.108;13.622;2023-06-22T05:44:39;13.32;;;12.00;;
68653;SDS011;55636;51.108;13.622;2023-06-22T05:45:44;12.40;;;11.10;;
68653;SDS011;55636;51.108;13.622;2023-06-22T05:46:46;13.20;;;11.13;;
68653;SDS011;55636;51.108;13.622;2023-06-22T05:47:50;11.98;;;10.75;;
68653;SDS011;55636;51.108;13.622;2023-06-22T05:48:52;11.73;;;10.63;;
68653;SDS011;55636;51.108;13.622;2023-06-22T05:49:55;11.80;;;10.68;;
68653;SDS011;55636;51.108;13.622;2023-06-22T05:50:57;12.52;;;11.23;;
68653;SDS011;55636;51.108;13.622;2023-06-22T05:52:00;12.35;;;11.18;;
68653;SDS011;55636;51.108;13.622;2023-06-22T05:53:03;12.18;;;11.00;;
68653;SDS011;55636;51.108;13.622;2023-06-22T05:54:05;12.48;;;11.18;;
68653;SDS011;55636;51.108;13.622;2023-06-22T05:55:08;12.30;;;11.00;;
68653;SDS011;55636;51.108;13.622;2023-06-22T05:56:11;12.45;;;11.15;;
68653;SDS011;55636;51.108;13.622;2023-06-22T05:57:13;13.02;;;10.95;;
68653;SDS011;55636;51.108;13.622;2023-06-22T05:58:16;12.65;;;11.38;;
68653;SDS011;55636;51.108;13.622;2023-06-22T05:59:19;12.13;;;11.02;;
68653;SDS011;55636;51.108;13.622;2023-06-22T06:00:21;12.32;;;11.13;;
68653;SDS011;55636;51.108;13.622;2023-06-22T06:01:25;12.02;;;10.82;;
68653;SDS011;55636;51.108;13.622;2023-06-22T06:02:31;12.45;;;10.93;;
68653;SDS011;55636;51.108;13.622;2023-06-22T06:03:36;12.35;;;11.25;;
68653;SDS011;55636;51.108;13.622;2023-06-22T06:04:43;12.38;;;11.07;;
68653;SDS011;55636;51.108;13.622;2023-06-22T06:05:45;11.95;;;10.75;;
68653;SDS011;55636;51.108;13.622;2023-06-22T06:06:48;12.10;;;10.93;;
68653;SDS011;55636;51.108;13.622;2023-06-22T06:07:50;11.75;;;10.70;;
68653;SDS011;55636;51.108;13.622;2023-06-22T06:08:53;11.50;;;10.50;;
68653;SDS011;55636;51.108;13.622;2023-06-22T06:09:55;11.90;;;10.80;;
68653;SDS011;55636;51.108;13.622;2023-06-22T06:10:57;11.68;;;10.20;;
68653;SDS011;55636;51.108;13.622;2023-06-22T06:12:00;11.73;;;10.38;;
68653;SDS011;55636;51.108;13.622;2023-06-22T06:13:05;11.00;;;10.00;;
68653;SDS011;55636;51.108;13.622;2023-06-22T06:14:08;12.05;;;10.95;;
68653;SDS011;55636;51.108;13.622;2023-06-22T06:15:10;11.85;;;10.65;;
68653;SDS011;55636;51.108;13.622;2023-06-22T06:16:14;11.90;;;10.80;;
68653;SDS011;55636;51.108;13.622;2023-06-22T06:17:16;12.07;;;10.90;;
68653;SDS011;55636;51.108;13.622;2023-06-22T06:18:19;11.77;;;10.70;;